Edisongracht — PDUJ — position and weather

sailwx.info

Track history (hours):
 
Tides and Currents Weather Stations Pressure Air Temp Water Temp Dewpoint Dewpoint Depression Visibility Wind Speed Wind Dir Waves Ship Positions

Edisongracht

Last reported at 2017-May-18 07:08 UTC. Time now 2017-May-30 05:25 UTC.
Position N 55°39' E 019°37'.
Warning: this ship's position is 11 days out of date.

Length 136 m; beam 19 m; draft 9 m.

Type: Cargo ship. MMSI: 244262000.

Date/timePositionNaut miles runAvg speedWind from/ knotsBaromVisibWave heightAir tempDewpointWater temp
2017-May-18 07:08N 55°39' E 019°37'1114.4
2017-May-18 06:22N 55°38' E 019°17'514.5
2017-May-18 06:00N 55°38' E 019°08'714.3
2017-May-18 05:31N 55°37' E 018°56'714.2
2017-May-18 05:01N 55°36' E 018°43'714.2
2017-May-18 04:31N 55°35' E 018°31'714.1
2017-May-18 04:00N 55°34' E 018°18'4614.2
2017-May-18 00:45N 55°31' E 016°57'414.4
2017-May-18 00:29N 55°31' E 016°50'714.5
2017-May-18 00:01N 55°31' E 016°38'1214.4
2017-May-17 23:10N 55°31' E 016°16'1014.4
2017-May-17 22:26N 55°31' E 015°58'614.3
2017-May-17 22:01N 55°32' E 015°47'714.5
2017-May-17 21:31N 55°31' E 015°34'714.6
2017-May-17 21:01N 55°31' E 015°21'714.6
2017-May-17 20:30N 55°31' E 015°09'714.5
2017-May-17 20:01N 55°29' E 014°56'714.5
2017-May-17 19:30N 55°26' E 014°44'714.0
2017-May-17 19:00N 55°22' E 014°35'714.6
2017-May-17 18:30N 55°16' E 014°27'714.6
2017-May-17 18:00N 55°10' E 014°19'714.9
2017-May-17 17:30N 55°04' E 014°11'714.2
2017-May-17 17:00N 55°00' E 014°01'714.6
2017-May-17 16:30N 54°58' E 013°48'914.7
2017-May-17 15:54N 54°55' E 013°34'2814.7
2017-May-17 14:01N 54°46' E 012°48'714.5
2017-May-17 13:31N 54°43' E 012°37'1814.0
2017-May-17 12:15N 54°30' E 012°16'314.3
2017-May-17 12:00N 54°27' E 012°14'3213.5
2017-May-17 09:39N 54°32' E 011°20'213.8
2017-May-17 09:29N 54°33' E 011°16'713.4
2017-May-17 08:58N 54°35' E 011°05'814.6
2017-May-17 08:27N 54°34' E 010°52'47 7.1
2017-May-17 01:53N 54°16' E 009°38'2 5.0
2017-May-17 01:26N 54°14' E 009°36'4 8.3
2017-May-17 00:58N 54°11' E 009°31'5 8.5
2017-May-17 00:21N 54°09' E 009°23'4 7.7
2017-May-16 23:52N 54°06' E 009°20'3 8.1
2017-May-16 23:30N 54°03' E 009°18'4 8.3
2017-May-16 23:00N 53°59' E 009°17'4 8.4
2017-May-16 22:30N 53°56' E 009°12'2 3.6
2017-May-16 22:00N 53°55' E 009°10'1 2.6
2017-May-16 21:30N 53°54' E 009°09'0 0.2
2017-May-16 21:00N 53°54' E 009°09'2 4.4
2017-May-16 20:30N 53°53' E 009°05'3 5.2
2017-May-16 20:01N 53°52' E 009°01'510.9
2017-May-16 19:30N 53°50' E 008°52'510.6
2017-May-16 19:00N 53°52' E 008°44'510.7
2017-May-16 18:30N 53°56' E 008°39'611.2
2017-May-16 18:00N 53°58' E 008°29'812.1
2017-May-16 17:22N 53°60' E 008°17'410.6
2017-May-16 16:58N 53°60' E 008°10'511.3
2017-May-16 16:30N 53°59' E 008°01'8012.5
2017-May-16 10:07N 53°38' E 005°50'715.9
2017-May-16 09:41N 53°36' E 005°39'416.3
2017-May-16 09:28N 53°35' E 005°33'1016.0
2017-May-16 08:52N 53°32' E 005°18'616.2
2017-May-16 08:30N 53°30' E 005°09'2315.6
2017-May-16 07:04N 53°18' E 004°37'116.3
2017-May-16 06:59N 53°17' E 004°36'816.3
2017-May-16 06:30N 53°10' E 004°29'816.4
2017-May-16 06:00N 53°02' E 004°23'816.1
2017-May-16 05:31N 52°55' E 004°17'815.5
2017-May-16 05:00N 52°49' E 004°10'815.4
2017-May-16 04:30N 52°42' E 004°03'815.2
2017-May-16 04:01N 52°37' E 003°55'815.0
2017-May-16 03:30N 52°31' E 003°46'714.7
2017-May-16 03:00N 52°26' E 003°37'814.5
2017-May-16 02:29N 52°21' E 003°29'814.2
2017-May-16 01:57N 52°15' E 003°20'614.0
2017-May-16 01:30N 52°11' E 003°13'713.4
2017-May-16 01:00N 52°05' E 003°06'713.7
2017-May-16 00:29N 51°58' E 003°06'713.4
2017-May-15 23:59N 51°52' E 003°07'1113.8
2017-May-15 23:11N 51°42' E 003°17'313.3
2017-May-15 22:57N 51°40' E 003°20'613.9
2017-May-15 22:30N 51°34' E 003°25'613.2
2017-May-15 22:01N 51°29' E 003°30'611.1
2017-May-15 21:30N 51°25' E 003°37'715.0
2017-May-15 21:00N 51°21' E 003°47'2 4.1
2017-May-15 20:30N 51°20' E 003°49'1 2.1
2017-May-15 20:00N 51°19' E 003°50'4 8.2
2017-May-15 19:30N 51°15' E 003°49'2 3.9
2017-May-15 19:00N 51°13' E 003°48'0 0.0
2017-May-15 18:30N 51°13' E 003°48'0 0.0
2017-May-15 18:00N 51°13' E 003°48'0 0.0
2017-May-15 17:30N 51°13' E 003°48'0 0.0
2017-May-15 17:00N 51°13' E 003°48'0 0.0
2017-May-15 16:27N 51°13' E 003°48'0 0.0
2017-May-15 16:00N 51°13' E 003°48'0 0.0
2017-May-15 15:29N 51°13' E 003°48'0 0.0
2017-May-15 14:59N 51°13' E 003°48'0 0.0
2017-May-15 14:00N 51°13' E 003°48'0 0.0
2017-May-15 13:30N 51°13' E 003°48'0 0.0
2017-May-15 13:00N 51°13' E 003°48'0 0.0
2017-May-15 12:24N 51°13' E 003°48'0 0.0
2017-May-15 12:00N 51°13' E 003°48'0 0.0
2017-May-15 11:30N 51°13' E 003°48'0 0.0
2017-May-15 10:57N 51°13' E 003°48'0 0.0
2017-May-15 10:28N 51°13' E 003°48'0 0.0
2017-May-15 09:58N 51°13' E 003°48'0 0.0
2017-May-15 09:25N 51°13' E 003°48'0 0.0
2017-May-15 08:58N 51°13' E 003°48'0 0.0
2017-May-15 08:27N 51°13' E 003°48'0 0.0
2017-May-15 08:00N 51°13' E 003°48'0 0.0
2017-May-15 07:28N 51°13' E 003°48'0 0.0
2017-May-15 06:59N 51°13' E 003°48'0 0.0
2017-May-15 06:31N 51°13' E 003°48'0 0.0
2017-May-15 06:00N 51°13' E 003°48'0 0.0
2017-May-15 05:28N 51°13' E 003°48'0 0.0
2017-May-15 04:59N 51°13' E 003°48'0 0.0
2017-May-15 04:22N 51°13' E 003°48'0 0.0
2017-May-15 03:52N 51°13' E 003°48'0 0.0
2017-May-15 03:28N 51°13' E 003°48'0 0.0
2017-May-15 02:57N 51°13' E 003°48'0 0.0
2017-May-15 02:30N 51°13' E 003°48'0 0.0
2017-May-15 01:58N 51°13' E 003°48'0 0.0
2017-May-15 01:28N 51°13' E 003°48'0 0.0
2017-May-15 01:00N 51°13' E 003°48'0 0.0
2017-May-15 00:30N 51°13' E 003°48'0 0.0
2017-May-15 00:00N 51°13' E 003°48'0 0.0
2017-May-14 23:27N 51°13' E 003°48'0 0.0
2017-May-14 23:00N 51°13' E 003°48'0 0.0
2017-May-14 22:30N 51°13' E 003°48'0 0.0
2017-May-14 22:01N 51°13' E 003°48'0 0.0
2017-May-14 21:30N 51°13' E 003°48'0 0.0
2017-May-14 21:01N 51°13' E 003°48'0 0.0
2017-May-14 20:28N 51°13' E 003°48'0 0.0
2017-May-14 20:01N 51°13' E 003°48'0 0.0
2017-May-14 19:29N 51°13' E 003°48'0 0.0
2017-May-14 19:00N 51°13' E 003°48'0 0.0
2017-May-14 18:30N 51°13' E 003°48'0 0.0
2017-May-14 18:01N 51°13' E 003°48'0 0.0
2017-May-14 17:25N 51°13' E 003°48'0 0.0
2017-May-14 16:59N 51°13' E 003°48'0 0.0
2017-May-14 16:30N 51°13' E 003°48'0 0.0
2017-May-14 16:00N 51°13' E 003°48'0 0.0
2017-May-14 15:30N 51°13' E 003°48'0 0.0
2017-May-14 14:58N 51°13' E 003°48'0 0.0
2017-May-14 14:25N 51°13' E 003°48'0 0.0
2017-May-14 13:31N 51°13' E 003°48'0 0.0
2017-May-14 13:00N 51°13' E 003°48'0 0.0
2017-May-14 12:30N 51°13' E 003°48'0 0.0
2017-May-14 11:58N 51°13' E 003°48'0 0.0
2017-May-14 11:28N 51°13' E 003°48'0 0.0
2017-May-14 10:59N 51°13' E 003°48'0 0.0
2017-May-14 10:30N 51°13' E 003°48'0 0.0
2017-May-14 10:00N 51°13' E 003°48'0 0.0
2017-May-14 09:30N 51°13' E 003°48'0 0.0
2017-May-14 08:56N 51°13' E 003°48'0 0.0
2017-May-14 08:31N 51°13' E 003°48'0 0.0
2017-May-14 08:00N 51°13' E 003°48'0 0.0
2017-May-14 07:31N 51°13' E 003°48'0 0.0
2017-May-14 06:57N 51°13' E 003°48'0 0.0
2017-May-14 06:30N 51°13' E 003°48'0 0.0
2017-May-14 06:00N 51°13' E 003°48'0 0.0
2017-May-14 05:30N 51°13' E 003°48'0 0.0
2017-May-14 04:56N 51°13' E 003°48'0 0.0
2017-May-14 04:26N 51°13' E 003°48'0 0.0
2017-May-14 03:59N 51°13' E 003°48'0 0.0
2017-May-14 03:31N 51°13' E 003°48'0 0.0
2017-May-14 03:00N 51°13' E 003°48'0 0.0
2017-May-14 02:27N 51°13' E 003°48'0 0.0
2017-May-14 01:56N 51°13' E 003°48'0 0.0
2017-May-14 01:29N 51°13' E 003°48'0 0.0
2017-May-14 00:56N 51°13' E 003°48'0 0.0
2017-May-14 00:30N 51°13' E 003°48'0 0.0
2017-May-13 23:58N 51°13' E 003°48'0 0.0
2017-May-13 23:25N 51°13' E 003°48'0 0.0
2017-May-13 22:59N 51°13' E 003°48'0 0.0
2017-May-13 22:30N 51°13' E 003°48'0 0.0
2017-May-13 22:01N 51°13' E 003°48'0 0.0
2017-May-13 21:30N 51°13' E 003°48'0 0.0
2017-May-13 21:00N 51°13' E 003°48'0 0.0
2017-May-13 20:30N 51°13' E 003°48'0 0.0
2017-May-13 20:01N 51°13' E 003°48'0 0.0
2017-May-13 19:29N 51°13' E 003°48'0 0.0
2017-May-13 19:00N 51°13' E 003°48'0 0.0
2017-May-13 18:30N 51°13' E 003°48'0 0.0
2017-May-13 18:00N 51°13' E 003°48'0 0.0
2017-May-13 17:27N 51°13' E 003°48'0 0.0
2017-May-13 17:01N 51°13' E 003°48'0 0.0
2017-May-13 16:27N 51°13' E 003°48'0 0.0
2017-May-13 16:00N 51°13' E 003°48'0 0.0
2017-May-13 15:31N 51°13' E 003°48'0 0.0
2017-May-13 15:00N 51°13' E 003°48'0 0.0
2017-May-13 14:30N 51°13' E 003°48'0 0.0
2017-May-13 13:30N 51°13' E 003°48'0 0.0
2017-May-13 12:59N 51°13' E 003°48'0 0.0
2017-May-13 12:26N 51°13' E 003°48'0 0.0
2017-May-13 12:00N 51°13' E 003°48'0 0.0
2017-May-13 11:30N 51°13' E 003°48'0 0.0
2017-May-13 11:01N 51°13' E 003°48'0 0.0
2017-May-13 10:30N 51°13' E 003°48'0 0.0
2017-May-13 10:00N 51°13' E 003°48'0 0.0
2017-May-13 09:30N 51°13' E 003°48'0 0.0
2017-May-13 08:56N 51°13' E 003°48'0 0.0
2017-May-13 08:29N 51°13' E 003°48'0 0.0
2017-May-13 07:56N 51°13' E 003°48'0 0.0
2017-May-13 07:29N 51°13' E 003°48'0 0.0
2017-May-13 06:59N 51°13' E 003°48'0 0.0
2017-May-13 06:31N 51°13' E 003°48'0 0.0
2017-May-13 06:00N 51°13' E 003°48'0 0.0
2017-May-13 05:26N 51°13' E 003°48'0 0.0
2017-May-13 05:01N 51°13' E 003°48'0 0.0
2017-May-13 04:30N 51°13' E 003°48'0 0.0
2017-May-13 03:58N 51°13' E 003°48'0 0.0
2017-May-13 03:30N 51°13' E 003°48'0 0.0
2017-May-13 02:58N 51°13' E 003°48'0 0.0
2017-May-13 02:30N 51°13' E 003°48'0 0.0
2017-May-13 01:58N 51°13' E 003°48'0 0.0
2017-May-13 01:28N 51°13' E 003°48'0 0.0
2017-May-13 00:56N 51°13' E 003°48'0 0.0
2017-May-13 00:30N 51°13' E 003°48'0 0.0
2017-May-13 00:01N 51°13' E 003°48'0 0.0
2017-May-12 23:31N 51°13' E 003°48'0 0.0
2017-May-12 23:00N 51°13' E 003°48'0 0.0
2017-May-12 22:28N 51°13' E 003°48'0 0.0
2017-May-12 22:00N 51°13' E 003°48'0 0.0
2017-May-12 21:30N 51°13' E 003°48'0 0.0
2017-May-12 21:00N 51°13' E 003°48'0 0.0
2017-May-12 20:31N 51°13' E 003°48'0 0.0
2017-May-12 19:59N 51°13' E 003°48'0 0.0
2017-May-12 19:27N 51°13' E 003°48'0 0.0
2017-May-12 18:58N 51°13' E 003°48'0 0.0
2017-May-12 18:31N 51°13' E 003°48'0 0.0
2017-May-12 18:00N 51°13' E 003°48'0 0.0
2017-May-12 17:30N 51°13' E 003°48'0 0.0
2017-May-12 16:59N 51°13' E 003°48'0 0.0
2017-May-12 16:30N 51°13' E 003°48'0 0.0
2017-May-12 16:00N 51°13' E 003°48'0 0.0
2017-May-12 15:31N 51°13' E 003°48'0 0.0
2017-May-12 15:00N 51°13' E 003°48'0 0.0
2017-May-12 14:30N 51°13' E 003°48'0 0.0
2017-May-12 13:30N 51°13' E 003°48'0 0.0
2017-May-12 12:59N 51°13' E 003°48'0 0.0
2017-May-12 12:30N 51°13' E 003°48'0 0.0
2017-May-12 12:00N 51°13' E 003°48'0 0.0
2017-May-12 11:30N 51°13' E 003°48'0 0.0
2017-May-12 11:00N 51°13' E 003°48'0 0.0
2017-May-12 10:30N 51°13' E 003°48'0 0.0
2017-May-12 10:00N 51°13' E 003°48'0 0.0
2017-May-12 09:30N 51°13' E 003°48'0 0.0
2017-May-12 08:58N 51°13' E 003°48'0 0.0
2017-May-12 08:30N 51°13' E 003°48'0 0.0
2017-May-12 07:59N 51°13' E 003°48'0 0.0
2017-May-12 07:31N 51°13' E 003°48'0 0.0
2017-May-12 07:00N 51°13' E 003°48'0 0.0
2017-May-12 06:30N 51°13' E 003°48'0 0.0
2017-May-12 06:00N 51°13' E 003°48'0 0.0
2017-May-12 05:30N 51°13' E 003°48'0 0.0
2017-May-12 05:00N 51°13' E 003°48'0 0.0
2017-May-12 04:30N 51°13' E 003°48'0 0.0
2017-May-12 03:58N 51°13' E 003°48'0 0.0
2017-May-12 03:29N 51°13' E 003°48'0 0.0
2017-May-12 03:00N 51°13' E 003°48'0 0.0
2017-May-12 02:26N 51°13' E 003°48'0 0.0
2017-May-12 02:00N 51°13' E 003°48'0 0.0
2017-May-12 01:29N 51°13' E 003°48'0 0.0
2017-May-12 00:59N 51°13' E 003°48'0 0.0
2017-May-12 00:26N 51°13' E 003°48'0 0.0
2017-May-11 23:58N 51°13' E 003°48'0 0.0
2017-May-11 23:30N 51°13' E 003°48'0 0.0
2017-May-11 23:00N 51°13' E 003°48'0 0.0
2017-May-11 22:30N 51°13' E 003°48'0 0.0
2017-May-11 21:59N 51°13' E 003°48'0 0.0
2017-May-11 21:30N 51°13' E 003°48'0 0.0
2017-May-11 21:00N 51°13' E 003°48'0 0.0
2017-May-11 20:28N 51°13' E 003°48'0 0.0
2017-May-11 19:58N 51°13' E 003°48'0 0.0
2017-May-11 19:30N 51°13' E 003°48'0 0.0
2017-May-11 18:58N 51°13' E 003°48'0 0.0
2017-May-11 18:30N 51°13' E 003°48'0 0.0
2017-May-11 18:00N 51°13' E 003°48'0 0.0
2017-May-11 17:30N 51°13' E 003°48'0 0.0
2017-May-11 17:00N 51°13' E 003°48'0 0.0
2017-May-11 16:30N 51°13' E 003°48'0 0.4
2017-May-11 16:00N 51°13' E 003°48'3 6.3
2017-May-11 15:31N 51°16' E 003°50'3 6.3
2017-May-11 15:00N 51°19' E 003°50'2 1.6
2017-May-11 14:00N 51°20' E 003°49'2 3.5
2017-May-11 13:30N 51°21' E 003°46'4 7.1
2017-May-11 13:00N 51°24' E 003°43'4 7.3
2017-May-11 12:30N 51°26' E 003°38'4 8.3
2017-May-11 12:00N 51°25' E 003°31'510.1
2017-May-11 11:30N 51°24' E 003°23'611.5
2017-May-11 11:00N 51°24' E 003°14'611.4
2017-May-11 10:30N 51°24' E 003°05'5 9.8
2017-May-11 10:00N 51°22' E 002°57'5 9.8
2017-May-11 09:30N 51°21' E 002°50'5 9.9
2017-May-11 09:00N 51°22' E 002°42'2 4.9
2017-May-11 08:30N 51°22' E 002°38'2 4.6
2017-May-11 08:00N 51°22' E 002°34'3 5.5
2017-May-11 07:30N 51°21' E 002°30'4 7.3
2017-May-11 06:59N 51°20' E 002°24'3 6.5
2017-May-11 06:30N 51°18' E 002°20'4 7.5
2017-May-11 06:00N 51°16' E 002°15'613.1
2017-May-11 05:30N 51°14' E 002°05'713.4
2017-May-11 05:00N 51°10' E 001°56'713.5
2017-May-11 04:30N 51°06' E 001°47'714.0
2017-May-11 04:00N 51°01' E 001°39'714.2
2017-May-11 03:30N 50°57' E 001°31'714.4
2017-May-11 03:00N 50°50' E 001°26'714.6
2017-May-11 02:30N 50°43' E 001°22'2913.9
2017-May-11 00:24N 50°27' E 000°44'913.8
2017-May-10 23:44N 50°25' E 000°30'313.8
2017-May-10 23:31N 50°24' E 000°25'713.9
2017-May-10 23:01N 50°22' E 000°15'714.2
2017-May-10 22:31N 50°20' E 000°04'714.6
2017-May-10 22:01N 50°18' W 000°07'815.1
2017-May-10 21:31N 50°17' W 000°19'815.7
2017-May-10 21:01N 50°15' W 000°31'816.1
2017-May-10 20:30N 50°13' W 000°43'816.5
2017-May-10 20:00N 50°10' W 000°55'816.6
2017-May-10 19:30N 50°08' W 001°08'816.5
2017-May-10 19:00N 50°06' W 001°20'816.2
2017-May-10 18:30N 50°04' W 001°32'815.8
2017-May-10 18:01N 50°02' W 001°44'815.1
2017-May-10 17:30N 49°60' W 001°55'714.4
2017-May-10 17:00N 49°58' W 002°06'713.5
2017-May-10 16:29N 49°56' W 002°17'613.0
2017-May-10 16:00N 49°54' W 002°26'712.6
2017-May-10 15:27N 49°52' W 002°37'612.2
2017-May-10 15:00N 49°51' W 002°45'1211.8
2017-May-10 13:58N 49°48' W 003°03'511.7
2017-May-10 13:30N 49°47' W 003°12'611.8
2017-May-10 13:00N 49°46' W 003°21'611.4
2017-May-10 12:29N 49°46' W 003°30'611.5
2017-May-10 12:00N 49°45' W 003°38'611.6
2017-May-10 11:30N 49°44' W 003°47'10111.8
2017-May-10 02:54N 49°27' W 006°21'3813.1
2017-May-10 00:00N 49°18' W 007°18'7913.2 180 / 311012.510.8 12.8 8.6
2017-May-09 18:00N 49°06' W 009°18'7612.6 080 / 221020.010.8 14.210.311.6
2017-May-09 12:00N 48°54' W 011°12'16013.4 180 / 351018.5 5.4 12.2 8.9
2017-May-09 00:00N 48°30' W 015°12'7412.3 080 / 181020.5 2.2 13.912.0
2017-May-08 18:00N 48°12' W 017°00'8814.6 090 / 161019.010.8 15.013.312.1
2017-May-08 12:00N 47°48' W 019°06'   250 / 181015.5 2.2 16.013.4
Track history (hours):
 
Tides and Currents Weather Stations Pressure Air Temp Water Temp Dewpoint Dewpoint Depression Visibility Wind Speed Wind Dir Waves Ship Positions

Edisongracht

Last reported at 2017-May-18 07:08 UTC. Time now 2017-May-30 05:25 UTC.
Position N 55°39' E 019°37'.
Warning: this ship's position is 11 days out of date.

Length 136 m; beam 19 m; draft 9 m.

Type: Cargo ship. MMSI: 244262000.

Date/timePositionNaut miles runAvg speedWind from/ knotsBaromVisibWave heightAir tempDewpointWater temp
2017-May-18 07:08N 55°39' E 019°37'1114.4
2017-May-18 06:22N 55°38' E 019°17'514.5
2017-May-18 06:00N 55°38' E 019°08'714.3
2017-May-18 05:31N 55°37' E 018°56'714.2
2017-May-18 05:01N 55°36' E 018°43'714.2
2017-May-18 04:31N 55°35' E 018°31'714.1
2017-May-18 04:00N 55°34' E 018°18'4614.2
2017-May-18 00:45N 55°31' E 016°57'414.4
2017-May-18 00:29N 55°31' E 016°50'714.5
2017-May-18 00:01N 55°31' E 016°38'1214.4
2017-May-17 23:10N 55°31' E 016°16'1014.4
2017-May-17 22:26N 55°31' E 015°58'614.3
2017-May-17 22:01N 55°32' E 015°47'714.5
2017-May-17 21:31N 55°31' E 015°34'714.6
2017-May-17 21:01N 55°31' E 015°21'714.6
2017-May-17 20:30N 55°31' E 015°09'714.5
2017-May-17 20:01N 55°29' E 014°56'714.5
2017-May-17 19:30N 55°26' E 014°44'714.0
2017-May-17 19:00N 55°22' E 014°35'714.6
2017-May-17 18:30N 55°16' E 014°27'714.6
2017-May-17 18:00N 55°10' E 014°19'714.9
2017-May-17 17:30N 55°04' E 014°11'714.2
2017-May-17 17:00N 55°00' E 014°01'714.6
2017-May-17 16:30N 54°58' E 013°48'914.7
2017-May-17 15:54N 54°55' E 013°34'2814.7
2017-May-17 14:01N 54°46' E 012°48'714.5
2017-May-17 13:31N 54°43' E 012°37'1814.0
2017-May-17 12:15N 54°30' E 012°16'314.3
2017-May-17 12:00N 54°27' E 012°14'3213.5
2017-May-17 09:39N 54°32' E 011°20'213.8
2017-May-17 09:29N 54°33' E 011°16'713.4
2017-May-17 08:58N 54°35' E 011°05'814.6
2017-May-17 08:27N 54°34' E 010°52'47 7.1
2017-May-17 01:53N 54°16' E 009°38'2 5.0
2017-May-17 01:26N 54°14' E 009°36'4 8.3
2017-May-17 00:58N 54°11' E 009°31'5 8.5
2017-May-17 00:21N 54°09' E 009°23'4 7.7
2017-May-16 23:52N 54°06' E 009°20'3 8.1
2017-May-16 23:30N 54°03' E 009°18'4 8.3
2017-May-16 23:00N 53°59' E 009°17'4 8.4
2017-May-16 22:30N 53°56' E 009°12'2 3.6
2017-May-16 22:00N 53°55' E 009°10'1 2.6
2017-May-16 21:30N 53°54' E 009°09'0 0.2
2017-May-16 21:00N 53°54' E 009°09'2 4.4
2017-May-16 20:30N 53°53' E 009°05'3 5.2
2017-May-16 20:01N 53°52' E 009°01'510.9
2017-May-16 19:30N 53°50' E 008°52'510.6
2017-May-16 19:00N 53°52' E 008°44'510.7
2017-May-16 18:30N 53°56' E 008°39'611.2
2017-May-16 18:00N 53°58' E 008°29'812.1
2017-May-16 17:22N 53°60' E 008°17'410.6
2017-May-16 16:58N 53°60' E 008°10'511.3
2017-May-16 16:30N 53°59' E 008°01'8012.5
2017-May-16 10:07N 53°38' E 005°50'715.9
2017-May-16 09:41N 53°36' E 005°39'416.3
2017-May-16 09:28N 53°35' E 005°33'1016.0
2017-May-16 08:52N 53°32' E 005°18'616.2
2017-May-16 08:30N 53°30' E 005°09'2315.6
2017-May-16 07:04N 53°18' E 004°37'116.3
2017-May-16 06:59N 53°17' E 004°36'816.3
2017-May-16 06:30N 53°10' E 004°29'816.4
2017-May-16 06:00N 53°02' E 004°23'816.1
2017-May-16 05:31N 52°55' E 004°17'815.5
2017-May-16 05:00N 52°49' E 004°10'815.4
2017-May-16 04:30N 52°42' E 004°03'815.2
2017-May-16 04:01N 52°37' E 003°55'815.0
2017-May-16 03:30N 52°31' E 003°46'714.7
2017-May-16 03:00N 52°26' E 003°37'814.5
2017-May-16 02:29N 52°21' E 003°29'814.2
2017-May-16 01:57N 52°15' E 003°20'614.0
2017-May-16 01:30N 52°11' E 003°13'713.4
2017-May-16 01:00N 52°05' E 003°06'713.7
2017-May-16 00:29N 51°58' E 003°06'713.4
2017-May-15 23:59N 51°52' E 003°07'1113.8
2017-May-15 23:11N 51°42' E 003°17'313.3
2017-May-15 22:57N 51°40' E 003°20'613.9
2017-May-15 22:30N 51°34' E 003°25'613.2
2017-May-15 22:01N 51°29' E 003°30'611.1
2017-May-15 21:30N 51°25' E 003°37'715.0
2017-May-15 21:00N 51°21' E 003°47'2 4.1
2017-May-15 20:30N 51°20' E 003°49'1 2.1
2017-May-15 20:00N 51°19' E 003°50'4 8.2
2017-May-15 19:30N 51°15' E 003°49'2 3.9
2017-May-15 19:00N 51°13' E 003°48'0 0.0
2017-May-15 18:30N 51°13' E 003°48'0 0.0
2017-May-15 18:00N 51°13' E 003°48'0 0.0
2017-May-15 17:30N 51°13' E 003°48'0 0.0
2017-May-15 17:00N 51°13' E 003°48'0 0.0
2017-May-15 16:27N 51°13' E 003°48'0 0.0
2017-May-15 16:00N 51°13' E 003°48'0 0.0
2017-May-15 15:29N 51°13' E 003°48'0 0.0
2017-May-15 14:59N 51°13' E 003°48'0 0.0
2017-May-15 14:00N 51°13' E 003°48'0 0.0
2017-May-15 13:30N 51°13' E 003°48'0 0.0
2017-May-15 13:00N 51°13' E 003°48'0 0.0
2017-May-15 12:24N 51°13' E 003°48'0 0.0
2017-May-15 12:00N 51°13' E 003°48'0 0.0
2017-May-15 11:30N 51°13' E 003°48'0 0.0
2017-May-15 10:57N 51°13' E 003°48'0 0.0
2017-May-15 10:28N 51°13' E 003°48'0 0.0
2017-May-15 09:58N 51°13' E 003°48'0 0.0
2017-May-15 09:25N 51°13' E 003°48'0 0.0
2017-May-15 08:58N 51°13' E 003°48'0 0.0
2017-May-15 08:27N 51°13' E 003°48'0 0.0
2017-May-15 08:00N 51°13' E 003°48'0 0.0
2017-May-15 07:28N 51°13' E 003°48'0 0.0
2017-May-15 06:59N 51°13' E 003°48'0 0.0
2017-May-15 06:31N 51°13' E 003°48'0 0.0
2017-May-15 06:00N 51°13' E 003°48'0 0.0
2017-May-15 05:28N 51°13' E 003°48'0 0.0
2017-May-15 04:59N 51°13' E 003°48'0 0.0
2017-May-15 04:22N 51°13' E 003°48'0 0.0
2017-May-15 03:52N 51°13' E 003°48'0 0.0
2017-May-15 03:28N 51°13' E 003°48'0 0.0
2017-May-15 02:57N 51°13' E 003°48'0 0.0
2017-May-15 02:30N 51°13' E 003°48'0 0.0
2017-May-15 01:58N 51°13' E 003°48'0 0.0
2017-May-15 01:28N 51°13' E 003°48'0 0.0
2017-May-15 01:00N 51°13' E 003°48'0 0.0
2017-May-15 00:30N 51°13' E 003°48'0 0.0
2017-May-15 00:00N 51°13' E 003°48'0 0.0
2017-May-14 23:27N 51°13' E 003°48'0 0.0
2017-May-14 23:00N 51°13' E 003°48'0 0.0
2017-May-14 22:30N 51°13' E 003°48'0 0.0
2017-May-14 22:01N 51°13' E 003°48'0 0.0
2017-May-14 21:30N 51°13' E 003°48'0 0.0
2017-May-14 21:01N 51°13' E 003°48'0 0.0
2017-May-14 20:28N 51°13' E 003°48'0 0.0
2017-May-14 20:01N 51°13' E 003°48'0 0.0
2017-May-14 19:29N 51°13' E 003°48'0 0.0
2017-May-14 19:00N 51°13' E 003°48'0 0.0
2017-May-14 18:30N 51°13' E 003°48'0 0.0
2017-May-14 18:01N 51°13' E 003°48'0 0.0
2017-May-14 17:25N 51°13' E 003°48'0 0.0
2017-May-14 16:59N 51°13' E 003°48'0 0.0
2017-May-14 16:30N 51°13' E 003°48'0 0.0
2017-May-14 16:00N 51°13' E 003°48'0 0.0
2017-May-14 15:30N 51°13' E 003°48'0 0.0
2017-May-14 14:58N 51°13' E 003°48'0 0.0
2017-May-14 14:25N 51°13' E 003°48'0 0.0
2017-May-14 13:31N 51°13' E 003°48'0 0.0
2017-May-14 13:00N 51°13' E 003°48'0 0.0
2017-May-14 12:30N 51°13' E 003°48'0 0.0
2017-May-14 11:58N 51°13' E 003°48'0 0.0
2017-May-14 11:28N 51°13' E 003°48'0 0.0
2017-May-14 10:59N 51°13' E 003°48'0 0.0
2017-May-14 10:30N 51°13' E 003°48'0 0.0
2017-May-14 10:00N 51°13' E 003°48'0 0.0
2017-May-14 09:30N 51°13' E 003°48'0 0.0
2017-May-14 08:56N 51°13' E 003°48'0 0.0
2017-May-14 08:31N 51°13' E 003°48'0 0.0
2017-May-14 08:00N 51°13' E 003°48'0 0.0
2017-May-14 07:31N 51°13' E 003°48'0 0.0
2017-May-14 06:57N 51°13' E 003°48'0 0.0
2017-May-14 06:30N 51°13' E 003°48'0 0.0
2017-May-14 06:00N 51°13' E 003°48'0 0.0
2017-May-14 05:30N 51°13' E 003°48'0 0.0
2017-May-14 04:56N 51°13' E 003°48'0 0.0
2017-May-14 04:26N 51°13' E 003°48'0 0.0
2017-May-14 03:59N 51°13' E 003°48'0 0.0
2017-May-14 03:31N 51°13' E 003°48'0 0.0
2017-May-14 03:00N 51°13' E 003°48'0 0.0
2017-May-14 02:27N 51°13' E 003°48'0 0.0
2017-May-14 01:56N 51°13' E 003°48'0 0.0
2017-May-14 01:29N 51°13' E 003°48'0 0.0
2017-May-14 00:56N 51°13' E 003°48'0 0.0
2017-May-14 00:30N 51°13' E 003°48'0 0.0
2017-May-13 23:58N 51°13' E 003°48'0 0.0
2017-May-13 23:25N 51°13' E 003°48'0 0.0
2017-May-13 22:59N 51°13' E 003°48'0 0.0
2017-May-13 22:30N 51°13' E 003°48'0 0.0
2017-May-13 22:01N 51°13' E 003°48'0 0.0
2017-May-13 21:30N 51°13' E 003°48'0 0.0
2017-May-13 21:00N 51°13' E 003°48'0 0.0
2017-May-13 20:30N 51°13' E 003°48'0 0.0
2017-May-13 20:01N 51°13' E 003°48'0 0.0
2017-May-13 19:29N 51°13' E 003°48'0 0.0
2017-May-13 19:00N 51°13' E 003°48'0 0.0
2017-May-13 18:30N 51°13' E 003°48'0 0.0
2017-May-13 18:00N 51°13' E 003°48'0 0.0
2017-May-13 17:27N 51°13' E 003°48'0 0.0
2017-May-13 17:01N 51°13' E 003°48'0 0.0
2017-May-13 16:27N 51°13' E 003°48'0 0.0
2017-May-13 16:00N 51°13' E 003°48'0 0.0
2017-May-13 15:31N 51°13' E 003°48'0 0.0
2017-May-13 15:00N 51°13' E 003°48'0 0.0
2017-May-13 14:30N 51°13' E 003°48'0 0.0
2017-May-13 13:30N 51°13' E 003°48'0 0.0
2017-May-13 12:59N 51°13' E 003°48'0 0.0
2017-May-13 12:26N 51°13' E 003°48'0 0.0
2017-May-13 12:00N 51°13' E 003°48'0 0.0
2017-May-13 11:30N 51°13' E 003°48'0 0.0
2017-May-13 11:01N 51°13' E 003°48'0 0.0
2017-May-13 10:30N 51°13' E 003°48'0 0.0
2017-May-13 10:00N 51°13' E 003°48'0 0.0
2017-May-13 09:30N 51°13' E 003°48'0 0.0
2017-May-13 08:56N 51°13' E 003°48'0 0.0
2017-May-13 08:29N 51°13' E 003°48'0 0.0
2017-May-13 07:56N 51°13' E 003°48'0 0.0
2017-May-13 07:29N 51°13' E 003°48'0 0.0
2017-May-13 06:59N 51°13' E 003°48'0 0.0
2017-May-13 06:31N 51°13' E 003°48'0 0.0
2017-May-13 06:00N 51°13' E 003°48'0 0.0
2017-May-13 05:26N 51°13' E 003°48'0 0.0
2017-May-13 05:01N 51°13' E 003°48'0 0.0
2017-May-13 04:30N 51°13' E 003°48'0 0.0
2017-May-13 03:58N 51°13' E 003°48'0 0.0
2017-May-13 03:30N 51°13' E 003°48'0 0.0
2017-May-13 02:58N 51°13' E 003°48'0 0.0
2017-May-13 02:30N 51°13' E 003°48'0 0.0
2017-May-13 01:58N 51°13' E 003°48'0 0.0
2017-May-13 01:28N 51°13' E 003°48'0 0.0
2017-May-13 00:56N 51°13' E 003°48'0 0.0
2017-May-13 00:30N 51°13' E 003°48'0 0.0
2017-May-13 00:01N 51°13' E 003°48'0 0.0
2017-May-12 23:31N 51°13' E 003°48'0 0.0
2017-May-12 23:00N 51°13' E 003°48'0 0.0
2017-May-12 22:28N 51°13' E 003°48'0 0.0
2017-May-12 22:00N 51°13' E 003°48'0 0.0
2017-May-12 21:30N 51°13' E 003°48'0 0.0
2017-May-12 21:00N 51°13' E 003°48'0 0.0
2017-May-12 20:31N 51°13' E 003°48'0 0.0
2017-May-12 19:59N 51°13' E 003°48'0 0.0
2017-May-12 19:27N 51°13' E 003°48'0 0.0
2017-May-12 18:58N 51°13' E 003°48'0 0.0
2017-May-12 18:31N 51°13' E 003°48'0 0.0
2017-May-12 18:00N 51°13' E 003°48'0 0.0
2017-May-12 17:30N 51°13' E 003°48'0 0.0
2017-May-12 16:59N 51°13' E 003°48'0 0.0
2017-May-12 16:30N 51°13' E 003°48'0 0.0
2017-May-12 16:00N 51°13' E 003°48'0 0.0
2017-May-12 15:31N 51°13' E 003°48'0 0.0
2017-May-12 15:00N 51°13' E 003°48'0 0.0
2017-May-12 14:30N 51°13' E 003°48'0 0.0
2017-May-12 13:30N 51°13' E 003°48'0 0.0
2017-May-12 12:59N 51°13' E 003°48'0 0.0
2017-May-12 12:30N 51°13' E 003°48'0 0.0
2017-May-12 12:00N 51°13' E 003°48'0 0.0
2017-May-12 11:30N 51°13' E 003°48'0 0.0
2017-May-12 11:00N 51°13' E 003°48'0 0.0
2017-May-12 10:30N 51°13' E 003°48'0 0.0
2017-May-12 10:00N 51°13' E 003°48'0 0.0
2017-May-12 09:30N 51°13' E 003°48'0 0.0
2017-May-12 08:58N 51°13' E 003°48'0 0.0
2017-May-12 08:30N 51°13' E 003°48'0 0.0
2017-May-12 07:59N 51°13' E 003°48'0 0.0
2017-May-12 07:31N 51°13' E 003°48'0 0.0
2017-May-12 07:00N 51°13' E 003°48'0 0.0
2017-May-12 06:30N 51°13' E 003°48'0 0.0
2017-May-12 06:00N 51°13' E 003°48'0 0.0
2017-May-12 05:30N 51°13' E 003°48'0 0.0
2017-May-12 05:00N 51°13' E 003°48'0 0.0
2017-May-12 04:30N 51°13' E 003°48'0 0.0
2017-May-12 03:58N 51°13' E 003°48'0 0.0
2017-May-12 03:29N 51°13' E 003°48'0 0.0
2017-May-12 03:00N 51°13' E 003°48'0 0.0
2017-May-12 02:26N 51°13' E 003°48'0 0.0
2017-May-12 02:00N 51°13' E 003°48'0 0.0
2017-May-12 01:29N 51°13' E 003°48'0 0.0
2017-May-12 00:59N 51°13' E 003°48'0 0.0
2017-May-12 00:26N 51°13' E 003°48'0 0.0
2017-May-11 23:58N 51°13' E 003°48'0 0.0
2017-May-11 23:30N 51°13' E 003°48'0 0.0
2017-May-11 23:00N 51°13' E 003°48'0 0.0
2017-May-11 22:30N 51°13' E 003°48'0 0.0
2017-May-11 21:59N 51°13' E 003°48'0 0.0
2017-May-11 21:30N 51°13' E 003°48'0 0.0
2017-May-11 21:00N 51°13' E 003°48'0 0.0
2017-May-11 20:28N 51°13' E 003°48'0 0.0
2017-May-11 19:58N 51°13' E 003°48'0 0.0
2017-May-11 19:30N 51°13' E 003°48'0 0.0
2017-May-11 18:58N 51°13' E 003°48'0 0.0
2017-May-11 18:30N 51°13' E 003°48'0 0.0
2017-May-11 18:00N 51°13' E 003°48'0 0.0
2017-May-11 17:30N 51°13' E 003°48'0 0.0
2017-May-11 17:00N 51°13' E 003°48'0 0.0
2017-May-11 16:30N 51°13' E 003°48'0 0.4
2017-May-11 16:00N 51°13' E 003°48'3 6.3
2017-May-11 15:31N 51°16' E 003°50'3 6.3
2017-May-11 15:00N 51°19' E 003°50'2 1.6
2017-May-11 14:00N 51°20' E 003°49'2 3.5
2017-May-11 13:30N 51°21' E 003°46'4 7.1
2017-May-11 13:00N 51°24' E 003°43'4 7.3
2017-May-11 12:30N 51°26' E 003°38'4 8.3
2017-May-11 12:00N 51°25' E 003°31'510.1
2017-May-11 11:30N 51°24' E 003°23'611.5
2017-May-11 11:00N 51°24' E 003°14'611.4
2017-May-11 10:30N 51°24' E 003°05'5 9.8
2017-May-11 10:00N 51°22' E 002°57'5 9.8
2017-May-11 09:30N 51°21' E 002°50'5 9.9
2017-May-11 09:00N 51°22' E 002°42'2 4.9
2017-May-11 08:30N 51°22' E 002°38'2 4.6
2017-May-11 08:00N 51°22' E 002°34'3 5.5
2017-May-11 07:30N 51°21' E 002°30'4 7.3
2017-May-11 06:59N 51°20' E 002°24'3 6.5
2017-May-11 06:30N 51°18' E 002°20'4 7.5
2017-May-11 06:00N 51°16' E 002°15'613.1
2017-May-11 05:30N 51°14' E 002°05'713.4
2017-May-11 05:00N 51°10' E 001°56'713.5
2017-May-11 04:30N 51°06' E 001°47'714.0
2017-May-11 04:00N 51°01' E 001°39'714.2
2017-May-11 03:30N 50°57' E 001°31'714.4
2017-May-11 03:00N 50°50' E 001°26'714.6
2017-May-11 02:30N 50°43' E 001°22'2913.9
2017-May-11 00:24N 50°27' E 000°44'913.8
2017-May-10 23:44N 50°25' E 000°30'313.8
2017-May-10 23:31N 50°24' E 000°25'713.9
2017-May-10 23:01N 50°22' E 000°15'714.2
2017-May-10 22:31N 50°20' E 000°04'714.6
2017-May-10 22:01N 50°18' W 000°07'815.1
2017-May-10 21:31N 50°17' W 000°19'815.7
2017-May-10 21:01N 50°15' W 000°31'816.1
2017-May-10 20:30N 50°13' W 000°43'816.5
2017-May-10 20:00N 50°10' W 000°55'816.6
2017-May-10 19:30N 50°08' W 001°08'816.5
2017-May-10 19:00N 50°06' W 001°20'816.2
2017-May-10 18:30N 50°04' W 001°32'815.8
2017-May-10 18:01N 50°02' W 001°44'815.1
2017-May-10 17:30N 49°60' W 001°55'714.4
2017-May-10 17:00N 49°58' W 002°06'713.5
2017-May-10 16:29N 49°56' W 002°17'613.0
2017-May-10 16:00N 49°54' W 002°26'712.6
2017-May-10 15:27N 49°52' W 002°37'612.2
2017-May-10 15:00N 49°51' W 002°45'1211.8
2017-May-10 13:58N 49°48' W 003°03'511.7
2017-May-10 13:30N 49°47' W 003°12'611.8
2017-May-10 13:00N 49°46' W 003°21'611.4
2017-May-10 12:29N 49°46' W 003°30'611.5
2017-May-10 12:00N 49°45' W 003°38'611.6
2017-May-10 11:30N 49°44' W 003°47'10111.8
2017-May-10 02:54N 49°27' W 006°21'3813.1
2017-May-10 00:00N 49°18' W 007°18'7913.2 180 / 311012.510.8 12.8 8.6
2017-May-09 18:00N 49°06' W 009°18'7612.6 080 / 221020.010.8 14.210.311.6
2017-May-09 12:00N 48°54' W 011°12'16013.4 180 / 351018.5 5.4 12.2 8.9
2017-May-09 00:00N 48°30' W 015°12'7412.3 080 / 181020.5 2.2 13.912.0
2017-May-08 18:00N 48°12' W 017°00'8814.6 090 / 161019.010.8 15.013.312.1
2017-May-08 12:00N 47°48' W 019°06'   250 / 181015.5 2.2 16.013.4

Dump ship's entire track history